createdAt,value
2018-04-16T00:00:58.407Z,13.20
2018-04-16T00:03:26.685Z,13.10
2018-04-16T00:05:54.994Z,13.10
2018-04-16T00:08:24.068Z,13.10
2018-04-16T00:10:52.371Z,13.10
2018-04-16T00:13:21.398Z,13.20
2018-04-16T00:15:50.802Z,13.20
2018-04-16T00:18:19.053Z,13.20
2018-04-16T00:20:47.355Z,13.30
2018-04-16T00:23:15.665Z,13.30
2018-04-16T00:25:44.736Z,13.10
2018-04-16T00:28:13.015Z,13.10
2018-04-16T00:30:41.322Z,12.90
2018-04-16T00:33:15.463Z,12.80
2018-04-16T00:38:50.275Z,12.80
2018-04-16T00:41:24.271Z,12.80
2018-04-16T00:43:58.198Z,12.80
2018-04-16T00:46:32.513Z,12.70
2018-04-16T00:49:06.527Z,12.60
2018-04-16T00:51:40.549Z,12.70
2018-04-16T00:54:23.258Z,12.80
2018-04-16T00:56:57.344Z,12.80
2018-04-16T00:59:31.236Z,12.70
2018-04-16T01:02:05.194Z,12.70
2018-04-16T01:04:39.202Z,12.60
2018-04-16T01:07:13.170Z,12.60
2018-04-16T01:09:47.200Z,12.50
2018-04-16T01:12:21.233Z,12.50
2018-04-16T01:14:55.207Z,12.60
2018-04-16T01:17:29.139Z,12.50
2018-04-16T01:20:03.270Z,12.60
2018-04-16T01:22:37.379Z,12.50
2018-04-16T01:25:11.475Z,12.40
2018-04-16T01:27:45.582Z,12.40
2018-04-16T01:30:19.489Z,12.50
2018-04-16T01:35:56.047Z,12.70
2018-04-16T01:38:30.820Z,12.60
2018-04-16T01:41:04.848Z,12.60
2018-04-16T01:43:38.837Z,12.50
2018-04-16T01:46:12.866Z,12.50
2018-04-16T01:48:46.842Z,12.50
2018-04-16T01:51:20.909Z,12.50
2018-04-16T01:53:54.939Z,12.70
2018-04-16T01:56:29.644Z,12.60
2018-04-16T01:59:03.758Z,12.50
2018-04-16T02:01:37.745Z,12.40
2018-04-16T02:04:11.697Z,12.40
2018-04-16T02:06:45.774Z,12.30
2018-04-16T02:09:19.694Z,12.30
2018-04-16T02:11:53.677Z,12.30
2018-04-16T02:14:27.768Z,12.30
2018-04-16T02:17:01.886Z,12.20
2018-04-16T02:19:35.765Z,12.20
2018-04-16T02:22:10.493Z,12.10
2018-04-16T02:24:44.407Z,12.10
2018-04-16T02:27:19.171Z,12.20
2018-04-16T02:29:53.087Z,12.20
2018-04-16T02:35:22.913Z,12.10
2018-04-16T02:37:56.881Z,12.10
2018-04-16T02:40:30.848Z,12.00
2018-04-16T02:43:04.676Z,12.10
2018-04-16T02:45:38.611Z,12.10
2018-04-16T02:48:12.733Z,12.00
2018-04-16T02:50:47.611Z,12.20
2018-04-16T02:53:21.648Z,12.20
2018-04-16T02:55:55.698Z,12.20
2018-04-16T02:58:30.487Z,12.40
2018-04-16T03:01:04.441Z,12.40
2018-04-16T03:03:39.294Z,12.50
2018-04-16T03:06:13.241Z,12.50
2018-04-16T03:11:47.954Z,12.40
2018-04-16T03:14:21.874Z,12.30
2018-04-16T03:16:55.874Z,12.40
2018-04-16T03:19:29.792Z,12.50
2018-04-16T03:22:03.765Z,12.50
2018-04-16T03:24:38.580Z,12.70
2018-04-16T03:27:12.499Z,12.70
2018-04-16T03:29:47.177Z,12.70
2018-04-16T03:32:21.165Z,12.70
2018-04-16T03:34:55.107Z,12.50
2018-04-16T03:37:29.323Z,12.50
2018-04-16T03:40:03.318Z,12.40
2018-04-16T03:45:33.342Z,12.30
2018-04-16T03:48:07.376Z,12.40
2018-04-16T03:50:41.352Z,12.30
2018-04-16T03:53:16.193Z,12.30
2018-04-16T03:55:46.428Z,12.30
2018-04-16T03:58:14.739Z,12.20
2018-04-16T04:00:43.809Z,12.40
2018-04-16T04:03:12.230Z,12.40
2018-04-16T04:05:40.710Z,12.40
2018-04-16T04:08:08.977Z,12.40
2018-04-16T04:10:37.385Z,12.40
2018-04-16T04:13:05.662Z,12.50
2018-04-16T04:15:33.960Z,12.40
2018-04-16T04:18:02.989Z,12.50
2018-04-16T04:20:31.307Z,12.50
2018-04-16T04:23:11.667Z,12.50
2018-04-16T04:25:51.911Z,12.40
2018-04-16T04:28:32.199Z,12.30
2018-04-16T04:31:01.375Z,12.30
2018-04-16T04:33:29.640Z,12.30
2018-04-16T04:35:57.942Z,12.30
2018-04-16T04:38:26.227Z,12.40
2018-04-16T04:40:54.610Z,12.40
2018-04-16T04:43:22.925Z,12.50
2018-04-16T04:45:52.072Z,12.40
2018-04-16T04:48:20.341Z,12.40
2018-04-16T04:50:48.627Z,12.40
2018-04-16T04:53:17.695Z,12.30
2018-04-16T04:55:46.000Z,12.30
2018-04-16T04:58:14.288Z,12.20
2018-04-16T05:00:43.352Z,12.30
2018-04-16T05:03:11.613Z,12.20
2018-04-16T05:05:40.012Z,12.30
2018-04-16T05:08:08.285Z,12.30
2018-04-16T05:10:36.676Z,12.40
2018-04-16T05:13:05.056Z,12.60
2018-04-16T05:15:33.429Z,12.60
2018-04-16T05:18:01.807Z,12.50
2018-04-16T05:20:30.069Z,12.50
2018-04-16T05:22:58.369Z,12.40
2018-04-16T05:25:26.667Z,12.40
2018-04-16T05:27:55.748Z,12.50
2018-04-16T05:30:24.012Z,12.40
2018-04-16T05:32:52.311Z,12.50
2018-04-16T05:35:20.669Z,12.50
2018-04-16T05:37:48.971Z,12.40
2018-04-16T05:40:17.329Z,12.20
2018-04-16T05:42:45.655Z,12.30
2018-04-16T05:45:13.927Z,12.40
2018-04-16T05:47:42.235Z,12.50
2018-04-16T05:50:10.513Z,12.50
2018-04-16T05:52:38.812Z,12.40
2018-04-16T05:55:07.187Z,12.40
2018-04-16T05:57:35.489Z,12.30
2018-04-16T06:00:03.856Z,12.20
2018-04-16T06:02:33.166Z,12.10
2018-04-16T06:05:01.454Z,12.10
2018-04-16T06:07:29.810Z,12.10
2018-04-16T06:09:58.188Z,12.10
2018-04-16T06:12:27.284Z,12.10
2018-04-16T06:14:55.665Z,12.20
2018-04-16T06:17:23.961Z,12.20
2018-04-16T06:19:53.032Z,12.10
2018-04-16T06:22:21.330Z,12.10
2018-04-16T06:24:49.646Z,12.10
2018-04-16T06:27:18.008Z,12.00
2018-04-16T06:29:46.278Z,12.00
2018-04-16T06:32:14.552Z,12.00
2018-04-16T06:34:43.664Z,11.90
2018-04-16T06:37:12.750Z,11.90
2018-04-16T06:39:41.039Z,11.90
2018-04-16T06:42:10.094Z,11.90
2018-04-16T06:44:39.297Z,11.90
2018-04-16T06:47:07.568Z,11.90
2018-04-16T06:49:35.907Z,11.90
2018-04-16T06:52:04.228Z,11.90
2018-04-16T06:54:32.606Z,11.90
2018-04-16T06:57:00.870Z,11.80
2018-04-16T06:59:29.172Z,11.90
2018-04-16T07:01:57.653Z,11.90
2018-04-16T07:04:25.973Z,11.80
2018-04-16T07:06:54.253Z,11.80
2018-04-16T07:09:22.549Z,11.90
2018-04-16T07:11:50.883Z,11.90
2018-04-16T07:14:19.958Z,11.90
2018-04-16T07:16:48.326Z,11.90
2018-04-16T07:19:16.656Z,11.80
2018-04-16T07:21:44.934Z,11.70
2018-04-16T07:24:13.223Z,11.70
2018-04-16T07:26:41.536Z,11.80
2018-04-16T07:29:09.808Z,11.90
2018-04-16T07:31:38.107Z,11.90
2018-04-16T07:34:06.383Z,11.90
2018-04-16T07:36:34.760Z,11.80
2018-04-16T07:39:03.016Z,11.80
2018-04-16T07:41:31.403Z,11.70
2018-04-16T07:43:59.694Z,11.70
2018-04-16T07:46:28.161Z,11.70
2018-04-16T07:48:56.415Z,11.80
2018-04-16T07:51:24.715Z,11.80
2018-04-16T07:53:52.996Z,11.90
2018-04-16T07:56:22.063Z,11.60
2018-04-16T07:58:50.343Z,11.60
2018-04-16T08:01:18.751Z,11.60
2018-04-16T08:03:47.024Z,11.60
2018-04-16T08:06:15.312Z,11.60
2018-04-16T08:08:43.607Z,11.70
2018-04-16T08:11:11.931Z,11.70
2018-04-16T08:13:40.193Z,11.90
2018-04-16T08:16:08.819Z,11.80
2018-04-16T08:18:37.079Z,11.70
2018-04-16T08:21:05.388Z,11.70
2018-04-16T08:23:34.428Z,11.60
2018-04-16T08:26:02.753Z,11.60
2018-04-16T08:28:31.031Z,11.60
2018-04-16T08:31:00.100Z,11.70
2018-04-16T08:33:28.363Z,11.70
2018-04-16T08:35:57.058Z,11.70
2018-04-16T08:38:25.358Z,11.70
2018-04-16T08:40:53.633Z,11.80
2018-04-16T08:43:22.006Z,11.80
2018-04-16T08:45:50.377Z,11.90
2018-04-16T08:48:18.668Z,11.90
2018-04-16T08:50:46.940Z,12.00
2018-04-16T08:53:15.241Z,12.00
2018-04-16T08:55:44.276Z,12.40
2018-04-16T08:58:12.571Z,12.30
2018-04-16T09:00:40.917Z,12.50
2018-04-16T09:03:09.219Z,12.50
2018-04-16T09:05:37.488Z,12.60
2018-04-16T09:08:05.792Z,12.70
2018-04-16T09:10:34.054Z,12.60
2018-04-16T09:13:02.364Z,12.60
2018-04-16T09:15:30.652Z,12.50
2018-04-16T09:17:59.747Z,12.60
2018-04-16T09:20:28.010Z,12.60
2018-04-16T09:22:57.898Z,12.70
2018-04-16T09:25:26.170Z,12.70
2018-04-16T09:27:54.475Z,12.70
2018-04-16T09:30:24.283Z,13.20
2018-04-16T09:32:52.581Z,13.20
2018-04-16T09:35:20.859Z,13.20
2018-04-16T09:37:49.361Z,13.60
2018-04-16T09:40:17.612Z,13.60
2018-04-16T09:42:45.913Z,13.70
2018-04-16T09:45:14.955Z,13.90
2018-04-16T09:47:43.450Z,13.90
2018-04-16T09:50:12.495Z,13.90
2018-04-16T09:52:40.816Z,13.90
2018-04-16T09:55:09.097Z,13.90
2018-04-16T09:57:37.398Z,13.80
2018-04-16T10:00:05.835Z,13.90
2018-04-16T10:02:34.879Z,14.20
2018-04-16T10:05:03.174Z,14.10
2018-04-16T10:07:31.660Z,14.20
2018-04-16T10:10:00.050Z,14.10
2018-04-16T10:12:28.319Z,14.00
2018-04-16T10:14:56.624Z,14.00
2018-04-16T10:17:25.662Z,14.30
2018-04-16T10:19:53.971Z,14.30
2018-04-16T10:22:22.244Z,14.40
2018-04-16T10:24:50.727Z,14.40
2018-04-16T10:27:19.025Z,14.10
2018-04-16T10:29:47.332Z,14.10
2018-04-16T10:32:15.598Z,14.20
2018-04-16T10:34:43.898Z,14.10
2018-04-16T10:37:12.170Z,14.20
2018-04-16T10:39:40.491Z,14.30
2018-04-16T10:42:08.777Z,14.60
2018-04-16T10:44:37.842Z,15.30
2018-04-16T10:47:06.144Z,15.30
2018-04-16T10:49:35.575Z,15.30
2018-04-16T10:52:04.533Z,15.50
2018-04-16T10:54:32.827Z,15.60
2018-04-16T10:57:01.107Z,15.60
2018-04-16T10:59:29.407Z,15.60
2018-04-16T11:01:58.437Z,16.20
2018-04-16T11:06:55.339Z,16.00
2018-04-16T11:09:23.704Z,16.00
2018-04-16T11:11:51.977Z,16.10
2018-04-16T11:14:20.282Z,16.10
2018-04-16T11:16:48.556Z,16.70
2018-04-16T11:19:16.859Z,17.00
2018-04-16T11:21:45.894Z,17.20
2018-04-16T11:24:14.173Z,17.20
2018-04-16T11:26:42.477Z,17.70
2018-04-16T11:29:10.771Z,18.00
2018-04-16T11:31:39.821Z,18.00
2018-04-16T11:34:08.114Z,17.90
2018-04-16T11:36:36.399Z,17.70
2018-04-16T11:39:04.663Z,17.70
2018-04-16T11:41:33.049Z,17.90
2018-04-16T11:44:01.341Z,17.90
2018-04-16T11:46:29.699Z,17.80
2018-04-16T11:48:57.963Z,18.00
2018-04-16T11:51:26.375Z,17.80
2018-04-16T11:53:54.651Z,18.20
2018-04-16T11:56:24.467Z,19.00
2018-04-16T11:58:52.744Z,19.10
2018-04-16T12:01:21.048Z,19.10
2018-04-16T12:03:50.110Z,19.00
2018-04-16T12:06:18.391Z,19.00
2018-04-16T12:08:46.666Z,19.20
2018-04-16T12:11:14.965Z,19.40
2018-04-16T12:13:44.007Z,19.70
2018-04-16T12:16:12.302Z,19.70
2018-04-16T12:18:40.565Z,19.80
2018-04-16T12:21:08.972Z,19.80
2018-04-16T12:23:37.345Z,20.20
2018-04-16T12:26:05.643Z,19.70
2018-04-16T12:28:33.903Z,20.10
2018-04-16T12:31:02.205Z,20.00
2018-04-16T12:33:31.291Z,19.90
2018-04-16T12:35:59.609Z,19.90
2018-04-16T12:38:27.881Z,19.80
2018-04-16T12:40:56.215Z,19.80
2018-04-16T12:43:24.504Z,19.70
2018-04-16T12:45:52.869Z,19.20
2018-04-16T12:48:21.151Z,19.30
2018-04-16T12:50:49.451Z,19.20
2018-04-16T12:53:18.474Z,18.80
2018-04-16T12:55:46.790Z,18.70
2018-04-16T12:58:15.058Z,18.90
2018-04-16T13:00:43.799Z,18.90
2018-04-16T13:03:13.333Z,19.20
2018-04-16T13:05:41.592Z,19.20
2018-04-16T13:08:09.891Z,19.20
2018-04-16T13:10:38.299Z,19.40
2018-04-16T13:13:06.699Z,19.50
2018-04-16T13:15:34.959Z,19.50
2018-04-16T13:18:04.049Z,19.10
2018-04-16T13:20:32.323Z,19.10
2018-04-16T13:23:00.637Z,19.10
2018-04-16T13:25:28.953Z,18.70
2018-04-16T13:27:57.256Z,18.80
2018-04-16T13:30:26.283Z,18.40
2018-04-16T13:32:54.582Z,18.40
2018-04-16T13:35:22.860Z,18.40
2018-04-16T13:37:51.175Z,18.20
2018-04-16T13:40:20.216Z,18.00
2018-04-16T13:42:49.438Z,18.00
2018-04-16T13:45:17.821Z,17.80
2018-04-16T13:47:46.115Z,17.60
2018-04-16T13:50:14.480Z,17.70
2018-04-16T13:52:42.792Z,17.70
2018-04-16T13:55:11.863Z,17.80
2018-04-16T13:57:40.164Z,17.80
2018-04-16T14:00:09.325Z,17.50
2018-04-16T14:02:37.708Z,17.50
2018-04-16T14:05:06.081Z,17.40
2018-04-16T14:07:34.373Z,17.20
2018-04-16T14:10:02.651Z,17.10
2018-04-16T14:12:30.956Z,16.80
2018-04-16T14:15:00.004Z,16.30
2018-04-16T14:17:28.296Z,16.30
2018-04-16T14:19:56.667Z,16.10
2018-04-16T14:22:24.941Z,16.10
2018-04-16T14:24:53.247Z,16.00
2018-04-16T14:27:22.321Z,15.90
2018-04-16T14:29:50.624Z,15.80
2018-04-16T14:32:19.665Z,15.70
2018-04-16T14:34:47.983Z,15.70
2018-04-16T14:37:16.262Z,15.70
2018-04-16T14:39:44.545Z,15.50
2018-04-16T14:42:13.637Z,15.40
2018-04-16T14:44:42.004Z,15.40
2018-04-16T14:47:10.380Z,15.30
2018-04-16T14:49:38.757Z,15.20
2018-04-16T14:52:07.115Z,15.10
2018-04-16T14:54:35.407Z,15.00
2018-04-16T14:57:04.198Z,15.00
2018-04-16T14:59:32.584Z,14.90
2018-04-16T15:02:00.867Z,14.90
2018-04-16T15:04:29.169Z,14.80
2018-04-16T15:06:58.200Z,14.50
2018-04-16T15:09:26.497Z,14.50
2018-04-16T15:11:54.860Z,14.40
2018-04-16T15:14:23.171Z,14.30
2018-04-16T15:16:51.447Z,14.20
2018-04-16T15:19:21.273Z,14.00
2018-04-16T15:21:49.634Z,14.00
2018-04-16T15:24:17.937Z,14.00
2018-04-16T15:26:46.205Z,13.90
2018-04-16T15:29:14.472Z,13.80
2018-04-16T15:31:42.773Z,13.80
2018-04-16T15:34:11.047Z,13.70
2018-04-16T15:36:39.786Z,13.70
2018-04-16T15:39:08.905Z,13.60
2018-04-16T15:41:37.203Z,13.60
2018-04-16T15:44:06.389Z,13.60
2018-04-16T15:46:34.674Z,13.60
2018-04-16T15:49:02.949Z,13.60
2018-04-16T15:51:31.322Z,13.60
2018-04-16T15:53:59.588Z,13.60
2018-04-16T15:56:28.011Z,13.60
2018-04-16T15:58:57.034Z,13.70
2018-04-16T16:01:25.351Z,13.60
2018-04-16T16:03:53.632Z,13.70
2018-04-16T16:06:21.915Z,13.80
2018-04-16T16:08:50.705Z,13.70
2018-04-16T16:11:19.088Z,13.70
2018-04-16T16:13:47.358Z,13.80
2018-04-16T16:16:17.193Z,14.00
2018-04-16T16:18:46.265Z,14.00
2018-04-16T16:21:14.577Z,14.00
2018-04-16T16:23:43.627Z,14.20
2018-04-16T16:26:11.920Z,14.10
2018-04-16T16:28:40.233Z,14.10
2018-04-16T16:31:08.564Z,14.10
2018-04-16T16:33:36.956Z,14.20
2018-04-16T16:36:05.237Z,14.20
2018-04-16T16:38:33.542Z,14.20
2018-04-16T16:41:01.851Z,14.20
2018-04-16T16:43:30.138Z,14.10
2018-04-16T16:45:58.586Z,14.10
2018-04-16T16:48:26.863Z,14.10
2018-04-16T16:50:55.638Z,14.10
2018-04-16T16:53:24.708Z,14.10
2018-04-16T16:55:53.895Z,14.10
2018-04-16T16:58:22.890Z,14.20
2018-04-16T17:00:51.180Z,14.20
2018-04-16T17:03:19.486Z,14.20
2018-04-16T17:05:48.521Z,14.30
2018-04-16T17:08:16.932Z,14.30
2018-04-16T17:10:45.212Z,14.40
2018-04-16T17:13:13.507Z,14.30
2018-04-16T17:15:42.551Z,14.30
2018-04-16T17:18:10.864Z,14.30
2018-04-16T17:20:39.335Z,14.40
2018-04-16T17:23:07.711Z,14.40
2018-04-16T17:25:35.983Z,14.40
2018-04-16T17:28:05.069Z,14.40
2018-04-16T17:30:33.387Z,14.30
2018-04-16T17:33:01.676Z,14.30
2018-04-16T17:35:30.739Z,14.40
2018-04-16T17:37:59.094Z,14.30
2018-04-16T17:40:27.378Z,14.40
2018-04-16T17:42:55.766Z,14.40
2018-04-16T17:45:24.063Z,14.40
2018-04-16T17:47:52.354Z,14.40
2018-04-16T17:50:21.395Z,14.40
2018-04-16T17:52:49.797Z,14.40
2018-04-16T17:55:18.150Z,14.40
2018-04-16T17:57:46.484Z,14.40
2018-04-16T18:00:14.933Z,14.30
2018-04-16T18:02:43.206Z,14.30
2018-04-16T18:05:11.504Z,14.30
2018-04-16T18:07:39.794Z,14.20
2018-04-16T18:10:08.864Z,14.30
2018-04-16T18:12:37.172Z,14.20
2018-04-16T18:15:06.235Z,14.30
2018-04-16T18:17:34.493Z,14.30
2018-04-16T18:20:02.794Z,14.30
2018-04-16T18:22:31.072Z,14.30
2018-04-16T18:24:59.448Z,14.30
2018-04-16T18:27:27.722Z,14.30
2018-04-16T18:29:56.110Z,14.30
2018-04-16T18:32:24.411Z,14.30
2018-04-16T18:34:53.483Z,14.30
2018-04-16T18:37:21.765Z,14.30
2018-04-16T18:39:50.047Z,14.30
2018-04-16T18:42:18.339Z,14.20
2018-04-16T18:44:46.635Z,14.20
2018-04-16T18:47:14.926Z,14.20
2018-04-16T18:49:43.217Z,14.30
2018-04-16T18:52:11.520Z,14.20
2018-04-16T18:54:39.823Z,14.20
2018-04-16T18:57:08.964Z,14.20
2018-04-16T18:59:37.281Z,14.10
2018-04-16T19:02:05.552Z,14.20
2018-04-16T19:04:33.860Z,14.20
2018-04-16T19:07:02.916Z,14.20
2018-04-16T19:09:31.208Z,14.20
2018-04-16T19:11:59.490Z,14.20
2018-04-16T19:14:27.768Z,14.20
2018-04-16T19:16:56.139Z,14.10
2018-04-16T19:19:24.411Z,14.00
2018-04-16T19:21:53.497Z,14.10
2018-04-16T19:24:21.778Z,14.10
2018-04-16T19:26:55.929Z,14.00
2018-04-16T19:29:24.190Z,14.00
2018-04-16T19:31:52.571Z,13.90
2018-04-16T19:34:26.627Z,13.90
2018-04-16T19:36:54.928Z,13.90
2018-04-16T19:39:23.211Z,13.90
2018-04-16T19:41:57.206Z,13.80
2018-04-16T19:44:25.483Z,13.80
2018-04-16T19:46:53.784Z,13.80
2018-04-16T19:49:27.749Z,13.70
2018-04-16T19:51:56.900Z,13.60
2018-04-16T19:54:25.192Z,13.60
2018-04-16T19:56:59.289Z,13.60
2018-04-16T19:59:27.561Z,13.50
2018-04-16T20:02:01.713Z,13.60
2018-04-16T20:04:29.979Z,13.50
2018-04-16T20:06:58.344Z,13.50
2018-04-16T20:09:27.760Z,13.50
2018-04-16T20:11:56.116Z,13.50
2018-04-16T20:14:24.392Z,13.50
2018-04-16T20:16:52.695Z,13.50
2018-04-16T20:19:20.967Z,13.60
2018-04-16T20:21:49.254Z,13.40
2018-04-16T20:24:18.987Z,13.30
2018-04-16T20:26:47.286Z,13.30
2018-04-16T20:29:15.600Z,13.30
2018-04-16T20:31:43.867Z,13.40
2018-04-16T20:34:12.191Z,13.40
2018-04-16T20:36:41.218Z,13.30
2018-04-16T20:39:09.530Z,13.30
2018-04-16T20:41:37.817Z,13.20
2018-04-16T20:44:06.109Z,13.10
2018-04-16T20:46:35.277Z,13.10
2018-04-16T20:49:03.659Z,13.00
2018-04-16T20:51:31.931Z,13.10
2018-04-16T20:54:00.235Z,13.00
2018-04-16T20:56:28.487Z,13.00
2018-04-16T20:58:56.858Z,13.00
2018-04-16T21:01:25.134Z,13.00
2018-04-16T21:03:53.435Z,12.90
2018-04-16T21:06:21.718Z,12.90
2018-04-16T21:08:50.022Z,12.80
2018-04-16T21:11:18.877Z,12.70
2018-04-16T21:13:47.939Z,12.70
2018-04-16T21:16:16.239Z,12.70
2018-04-16T21:18:44.528Z,12.70
2018-04-16T21:21:12.795Z,12.60
2018-04-16T21:23:41.085Z,12.70
2018-04-16T21:26:09.374Z,12.70
2018-04-16T21:28:37.679Z,12.70
2018-04-16T21:31:06.723Z,12.50
2018-04-16T21:33:35.101Z,12.50
2018-04-16T21:36:03.380Z,12.50
2018-04-16T21:38:31.654Z,12.50
2018-04-16T21:41:00.035Z,12.40
2018-04-16T21:43:29.044Z,12.40
2018-04-16T21:45:58.127Z,12.40
2018-04-16T21:48:26.432Z,12.30
2018-04-16T21:50:54.723Z,12.40
2018-04-16T21:53:23.750Z,12.30
2018-04-16T21:55:52.039Z,12.20
2018-04-16T21:58:20.397Z,12.20
2018-04-16T22:00:49.523Z,12.20
2018-04-16T22:03:18.592Z,12.20
2018-04-16T22:05:46.894Z,12.10
2018-04-16T22:08:15.917Z,12.10
2018-04-16T22:10:44.983Z,12.10
2018-04-16T22:13:14.754Z,12.00
2018-04-16T22:15:43.826Z,12.00
2018-04-16T22:18:12.087Z,12.00
2018-04-16T22:20:41.145Z,12.00
2018-04-16T22:23:09.423Z,12.00
2018-04-16T22:25:37.723Z,11.90
2018-04-16T22:28:07.536Z,11.90
2018-04-16T22:30:36.620Z,11.80
2018-04-16T22:33:05.708Z,11.80
2018-04-16T22:35:35.613Z,11.80
2018-04-16T22:38:03.865Z,11.80
2018-04-16T22:40:32.160Z,11.80
2018-04-16T22:43:00.435Z,11.80
2018-04-16T22:45:28.930Z,11.80
2018-04-16T22:47:57.211Z,11.90
2018-04-16T22:50:25.504Z,12.00
2018-04-16T22:52:53.780Z,12.10
2018-04-16T22:55:22.079Z,12.00
2018-04-16T22:57:51.109Z,11.90
2018-04-16T23:00:19.412Z,11.90
2018-04-16T23:02:47.695Z,11.90
2018-04-16T23:05:15.975Z,11.90
2018-04-16T23:07:44.287Z,11.80
2018-04-16T23:10:12.550Z,11.80
2018-04-16T23:12:41.715Z,11.70
2018-04-16T23:15:09.996Z,11.70
2018-04-16T23:17:38.299Z,11.70
2018-04-16T23:20:07.344Z,11.80
2018-04-16T23:22:35.667Z,11.80
2018-04-16T23:25:03.940Z,11.70
2018-04-16T23:27:32.402Z,11.80
2018-04-16T23:30:00.681Z,11.80
2018-04-16T23:32:29.063Z,11.80
2018-04-16T23:34:57.338Z,11.80
2018-04-16T23:37:25.814Z,11.70
2018-04-16T23:39:54.796Z,11.70
2018-04-16T23:42:23.085Z,11.70
2018-04-16T23:44:51.364Z,11.70
2018-04-16T23:47:19.667Z,11.70
2018-04-16T23:49:48.716Z,11.90
2018-04-16T23:52:17.041Z,11.90
2018-04-16T23:54:45.307Z,11.90
2018-04-16T23:57:13.599Z,11.90
2018-04-16T23:59:42.666Z,11.80
